KCZT

Dimmit County Airport

Carrizo Springs, Texas, USA
METAR KCZT 210655Z AUTO 19004KT 10SM CLR 20/17 A2995 RMK AO2 LTG DSNT S AND W
Observed Flight Rules
May-21 @ 06:55 UTC (19 minutes ago) Visual Flight Rules
Wind Visibility Clouds
190° at 4 knots 10 miles
  • Clear skies
Temperatures Readings
Current 20°C / 68°F
Dewpoint 17°C / 63°F
Humidity 83%
Altimeter 29.95" Hg
Pressure 1014 hPa
Elevation 183
METAR KCZT 210655Z AUTO 19004KT 10SM CLR 20/17 A2995 RMK AO2 LTG DSNT S AND W
Observed Flight Rules
May-21 @ 06:55 UTC
(19 minutes ago)
VFR
Wind Visibility
190° at 4 knots 10 miles
Clouds
  • Clear skies
Temperature Dewpoint
20°C / 68°F 17°C / 63°F
Humidity Altimeter Pressure
83% 29.95" Hg 1014 hPa